sensor_id;sensor_type;location;lat;lon;timestamp;P1;durP1;ratioP1;P2;durP2;ratioP2
23722;SDS011;12042;52.136;5.584;2022-12-07T06:50:05;8.80;;;3.25;;
23722;SDS011;12042;52.136;5.584;2022-12-07T06:52:32;9.10;;;3.25;;
23722;SDS011;12042;52.136;5.584;2022-12-07T06:54:59;10.70;;;3.78;;
23722;SDS011;12042;52.136;5.584;2022-12-07T06:57:25;8.90;;;3.17;;
23722;SDS011;12042;52.136;5.584;2022-12-07T06:59:51;5.75;;;2.83;;
23722;SDS011;12042;52.136;5.584;2022-12-07T07:02:16;9.02;;;2.85;;
23722;SDS011;12042;52.136;5.584;2022-12-07T07:04:42;10.13;;;2.85;;
23722;SDS011;12042;52.136;5.584;2022-12-07T07:07:08;7.05;;;2.70;;
23722;SDS011;12042;52.136;5.584;2022-12-07T07:09:34;11.55;;;2.83;;
23722;SDS011;12042;52.136;5.584;2022-12-07T07:11:59;7.90;;;2.72;;
23722;SDS011;12042;52.136;5.584;2022-12-07T07:14:25;15.90;;;5.28;;
23722;SDS011;12042;52.136;5.584;2022-12-07T07:16:51;14.13;;;6.25;;
23722;SDS011;12042;52.136;5.584;2022-12-07T07:19:16;15.80;;;6.53;;
23722;SDS011;12042;52.136;5.584;2022-12-07T07:21:42;12.07;;;4.40;;
23722;SDS011;12042;52.136;5.584;2022-12-07T07:24:07;7.05;;;3.45;;
23722;SDS011;12042;52.136;5.584;2022-12-07T07:26:33;9.10;;;3.60;;
23722;SDS011;12042;52.136;5.584;2022-12-07T07:28:59;6.65;;;2.88;;
23722;SDS011;12042;52.136;5.584;2022-12-07T07:31:24;10.02;;;3.28;;
23722;SDS011;12042;52.136;5.584;2022-12-07T07:33:50;8.52;;;3.70;;
23722;SDS011;12042;52.136;5.584;2022-12-07T07:36:15;9.25;;;3.60;;
23722;SDS011;12042;52.136;5.584;2022-12-07T07:38:42;12.98;;;3.92;;
23722;SDS011;12042;52.136;5.584;2022-12-07T07:41:07;16.90;;;5.50;;
23722;SDS011;12042;52.136;5.584;2022-12-07T07:43:33;11.52;;;5.25;;
23722;SDS011;12042;52.136;5.584;2022-12-07T07:45:58;12.75;;;4.75;;
23722;SDS011;12042;52.136;5.584;2022-12-07T07:48:24;13.82;;;4.57;;
23722;SDS011;12042;52.136;5.584;2022-12-07T07:50:50;9.27;;;4.78;;
23722;SDS011;12042;52.136;5.584;2022-12-07T07:53:16;9.50;;;4.47;;
23722;SDS011;12042;52.136;5.584;2022-12-07T07:55:41;14.75;;;5.10;;
23722;SDS011;12042;52.136;5.584;2022-12-07T07:58:16;13.57;;;5.13;;
23722;SDS011;12042;52.136;5.584;2022-12-07T08:00:41;19.85;;;4.97;;
23722;SDS011;12042;52.136;5.584;2022-12-07T08:03:07;17.65;;;5.55;;
23722;SDS011;12042;52.136;5.584;2022-12-07T08:05:32;15.35;;;7.93;;
23722;SDS011;12042;52.136;5.584;2022-12-07T08:07:58;11.57;;;6.30;;
23722;SDS011;12042;52.136;5.584;2022-12-07T08:10:24;11.10;;;5.60;;
23722;SDS011;12042;52.136;5.584;2022-12-07T08:12:49;12.65;;;6.30;;
23722;SDS011;12042;52.136;5.584;2022-12-07T08:15:33;13.80;;;5.78;;
23722;SDS011;12042;52.136;5.584;2022-12-07T08:18:02;14.23;;;6.43;;
23722;SDS011;12042;52.136;5.584;2022-12-07T08:20:29;10.88;;;5.53;;
23722;SDS011;12042;52.136;5.584;2022-12-07T08:22:55;6.55;;;5.30;;
23722;SDS011;12042;52.136;5.584;2022-12-07T08:25:21;10.85;;;6.25;;
23722;SDS011;12042;52.136;5.584;2022-12-07T08:27:47;10.00;;;5.90;;
23722;SDS011;12042;52.136;5.584;2022-12-07T08:30:13;13.60;;;5.63;;
23722;SDS011;12042;52.136;5.584;2022-12-07T08:32:39;14.73;;;6.00;;
23722;SDS011;12042;52.136;5.584;2022-12-07T08:35:05;12.38;;;7.30;;
23722;SDS011;12042;52.136;5.584;2022-12-07T08:37:31;21.67;;;9.40;;
23722;SDS011;12042;52.136;5.584;2022-12-07T08:39:57;17.38;;;8.68;;
23722;SDS011;12042;52.136;5.584;2022-12-07T08:42:22;18.13;;;8.43;;
23722;SDS011;12042;52.136;5.584;2022-12-07T08:44:52;11.23;;;7.40;;
23722;SDS011;12042;52.136;5.584;2022-12-07T08:47:18;16.33;;;7.43;;
23722;SDS011;12042;52.136;5.584;2022-12-07T08:49:45;21.50;;;9.13;;
23722;SDS011;12042;52.136;5.584;2022-12-07T08:52:15;18.27;;;9.07;;
23722;SDS011;12042;52.136;5.584;2022-12-07T08:54:41;15.23;;;7.75;;
23722;SDS011;12042;52.136;5.584;2022-12-07T08:57:07;18.13;;;8.57;;
23722;SDS011;12042;52.136;5.584;2022-12-07T08:59:34;17.60;;;7.72;;
23722;SDS011;12042;52.136;5.584;2022-12-07T09:02:02;12.35;;;6.97;;
23722;SDS011;12042;52.136;5.584;2022-12-07T09:04:28;10.38;;;6.63;;
23722;SDS011;12042;52.136;5.584;2022-12-07T09:06:54;19.67;;;8.88;;
23722;SDS011;12042;52.136;5.584;2022-12-07T09:09:20;13.32;;;5.80;;
23722;SDS011;12042;52.136;5.584;2022-12-07T09:11:46;16.08;;;6.90;;
23722;SDS011;12042;52.136;5.584;2022-12-07T09:14:12;16.95;;;8.18;;
23722;SDS011;12042;52.136;5.584;2022-12-07T09:16:37;15.88;;;7.60;;
23722;SDS011;12042;52.136;5.584;2022-12-07T09:19:03;17.33;;;7.90;;
23722;SDS011;12042;52.136;5.584;2022-12-07T09:21:29;14.35;;;7.20;;
23722;SDS011;12042;52.136;5.584;2022-12-07T09:23:54;17.27;;;6.10;;
23722;SDS011;12042;52.136;5.584;2022-12-07T09:26:20;12.90;;;6.60;;
23722;SDS011;12042;52.136;5.584;2022-12-07T09:28:46;9.63;;;5.97;;
23722;SDS011;12042;52.136;5.584;2022-12-07T09:31:11;13.07;;;5.10;;
23722;SDS011;12042;52.136;5.584;2022-12-07T09:33:37;11.32;;;5.60;;
23722;SDS011;12042;52.136;5.584;2022-12-07T09:36:03;9.98;;;5.20;;
23722;SDS011;12042;52.136;5.584;2022-12-07T09:38:30;9.90;;;5.15;;
23722;SDS011;12042;52.136;5.584;2022-12-07T09:40:57;13.20;;;5.45;;
23722;SDS011;12042;52.136;5.584;2022-12-07T09:43:28;10.13;;;4.90;;
23722;SDS011;12042;52.136;5.584;2022-12-07T09:45:54;9.30;;;4.60;;
23722;SDS011;12042;52.136;5.584;2022-12-07T09:48:25;13.20;;;4.30;;
23722;SDS011;12042;52.136;5.584;2022-12-07T09:50:58;10.23;;;3.65;;
23722;SDS011;12042;52.136;5.584;2022-12-07T09:53:26;9.30;;;4.13;;
23722;SDS011;12042;52.136;5.584;2022-12-07T09:55:55;10.45;;;3.13;;
23722;SDS011;12042;52.136;5.584;2022-12-07T09:58:25;7.45;;;4.38;;
23722;SDS011;12042;52.136;5.584;2022-12-07T10:00:53;12.93;;;3.72;;
23722;SDS011;12042;52.136;5.584;2022-12-07T10:03:42;9.05;;;3.92;;
23722;SDS011;12042;52.136;5.584;2022-12-07T10:06:20;5.55;;;3.08;;
23722;SDS011;12042;52.136;5.584;2022-12-07T10:08:46;13.18;;;3.80;;
23722;SDS011;12042;52.136;5.584;2022-12-07T10:11:12;6.75;;;3.00;;
23722;SDS011;12042;52.136;5.584;2022-12-07T10:13:43;7.50;;;3.17;;
23722;SDS011;12042;52.136;5.584;2022-12-07T10:18:49;8.48;;;2.80;;
23722;SDS011;12042;52.136;5.584;2022-12-07T10:21:19;5.55;;;3.40;;
23722;SDS011;12042;52.136;5.584;2022-12-07T10:24:13;9.55;;;3.15;;
23722;SDS011;12042;52.136;5.584;2022-12-07T10:29:15;5.72;;;2.40;;
23722;SDS011;12042;52.136;5.584;2022-12-07T10:31:44;6.32;;;2.83;;
23722;SDS011;12042;52.136;5.584;2022-12-07T10:34:21;10.52;;;3.20;;
23722;SDS011;12042;52.136;5.584;2022-12-07T10:36:54;8.85;;;3.20;;
23722;SDS011;12042;52.136;5.584;2022-12-07T10:42:27;3.25;;;2.42;;
23722;SDS011;12042;52.136;5.584;2022-12-07T10:45:14;8.02;;;2.45;;
23722;SDS011;12042;52.136;5.584;2022-12-07T10:47:46;9.07;;;2.30;;
23722;SDS011;12042;52.136;5.584;2022-12-07T10:50:34;5.80;;;2.35;;
23722;SDS011;12042;52.136;5.584;2022-12-07T10:58:49;8.93;;;1.83;;
23722;SDS011;12042;52.136;5.584;2022-12-07T11:06:57;7.15;;;2.33;;
23722;SDS011;12042;52.136;5.584;2022-12-07T11:12:17;7.82;;;1.70;;
23722;SDS011;12042;52.136;5.584;2022-12-07T11:15:04;7.18;;;1.90;;
23722;SDS011;12042;52.136;5.584;2022-12-07T11:23:28;5.65;;;1.40;;
23722;SDS011;12042;52.136;5.584;2022-12-07T11:34:29;6.78;;;1.38;;
23722;SDS011;12042;52.136;5.584;2022-12-07T11:37:21;5.22;;;1.63;;
23722;SDS011;12042;52.136;5.584;2022-12-07T11:39:52;6.13;;;2.20;;
23722;SDS011;12042;52.136;5.584;2022-12-07T11:42:25;5.38;;;2.38;;
23722;SDS011;12042;52.136;5.584;2022-12-07T11:45:03;6.88;;;2.90;;
23722;SDS011;12042;52.136;5.584;2022-12-07T11:47:39;6.15;;;3.13;;
23722;SDS011;12042;52.136;5.584;2022-12-07T11:50:22;8.55;;;2.50;;
23722;SDS011;12042;52.136;5.584;2022-12-07T12:01:06;6.47;;;1.60;;
23722;SDS011;12042;52.136;5.584;2022-12-07T12:03:42;6.47;;;1.90;;
23722;SDS011;12042;52.136;5.584;2022-12-07T12:06:10;5.78;;;2.05;;
23722;SDS011;12042;52.136;5.584;2022-12-07T12:08:38;8.93;;;2.17;;
23722;SDS011;12042;52.136;5.584;2022-12-07T12:11:48;6.13;;;2.10;;
23722;SDS011;12042;52.136;5.584;2022-12-07T12:19:33;7.07;;;2.00;;
23722;SDS011;12042;52.136;5.584;2022-12-07T12:22:17;9.75;;;2.05;;
23722;SDS011;12042;52.136;5.584;2022-12-07T12:24:46;4.70;;;1.75;;
23722;SDS011;12042;52.136;5.584;2022-12-07T12:27:32;5.60;;;1.50;;
23722;SDS011;12042;52.136;5.584;2022-12-07T12:30:22;5.53;;;1.52;;
23722;SDS011;12042;52.136;5.584;2022-12-07T12:33:04;5.78;;;1.58;;
23722;SDS011;12042;52.136;5.584;2022-12-07T12:35:38;6.40;;;1.73;;
23722;SDS011;12042;52.136;5.584;2022-12-07T12:40:54;4.82;;;2.17;;
23722;SDS011;12042;52.136;5.584;2022-12-07T12:51:40;4.60;;;2.03;;
23722;SDS011;12042;52.136;5.584;2022-12-07T12:56:50;5.30;;;2.17;;
23722;SDS011;12042;52.136;5.584;2022-12-07T12:59:32;4.90;;;2.13;;
23722;SDS011;12042;52.136;5.584;2022-12-07T13:12:59;7.25;;;1.90;;
23722;SDS011;12042;52.136;5.584;2022-12-07T13:21:00;7.00;;;1.65;;
23722;SDS011;12042;52.136;5.584;2022-12-07T13:25:59;9.20;;;1.40;;
23722;SDS011;12042;52.136;5.584;2022-12-07T13:28:41;3.67;;;1.20;;
23722;SDS011;12042;52.136;5.584;2022-12-07T13:31:31;3.67;;;1.40;;
23722;SDS011;12042;52.136;5.584;2022-12-07T13:34:28;8.70;;;2.22;;
23722;SDS011;12042;52.136;5.584;2022-12-07T13:37:26;3.75;;;2.30;;
23722;SDS011;12042;52.136;5.584;2022-12-07T13:39:56;5.65;;;1.80;;
23722;SDS011;12042;52.136;5.584;2022-12-07T13:42:30;4.10;;;2.30;;
23722;SDS011;12042;52.136;5.584;2022-12-07T13:44:59;3.85;;;1.90;;
23722;SDS011;12042;52.136;5.584;2022-12-07T13:47:31;3.03;;;1.70;;
23722;SDS011;12042;52.136;5.584;2022-12-07T13:50:01;4.75;;;1.70;;
23722;SDS011;12042;52.136;5.584;2022-12-07T13:52:45;7.60;;;2.50;;
23722;SDS011;12042;52.136;5.584;2022-12-07T13:55:14;7.43;;;4.32;;
23722;SDS011;12042;52.136;5.584;2022-12-07T13:57:42;6.07;;;5.40;;
23722;SDS011;12042;52.136;5.584;2022-12-07T14:00:15;7.65;;;5.13;;
23722;SDS011;12042;52.136;5.584;2022-12-07T14:05:31;4.90;;;2.80;;
23722;SDS011;12042;52.136;5.584;2022-12-07T14:07:58;3.72;;;2.85;;
23722;SDS011;12042;52.136;5.584;2022-12-07T14:10:29;5.35;;;2.67;;
23722;SDS011;12042;52.136;5.584;2022-12-07T14:12:55;3.08;;;2.78;;
23722;SDS011;12042;52.136;5.584;2022-12-07T14:15:23;8.73;;;2.70;;
23722;SDS011;12042;52.136;5.584;2022-12-07T14:17:54;5.82;;;3.15;;
23722;SDS011;12042;52.136;5.584;2022-12-07T14:22:56;6.28;;;3.42;;
23722;SDS011;12042;52.136;5.584;2022-12-07T14:25:23;6.32;;;3.17;;
23722;SDS011;12042;52.136;5.584;2022-12-07T14:28:09;4.10;;;2.90;;
23722;SDS011;12042;52.136;5.584;2022-12-07T14:30:52;4.70;;;3.03;;
23722;SDS011;12042;52.136;5.584;2022-12-07T14:33:17;2.42;;;2.13;;
23722;SDS011;12042;52.136;5.584;2022-12-07T14:35:43;3.10;;;2.78;;
23722;SDS011;12042;52.136;5.584;2022-12-07T14:38:09;5.55;;;2.67;;
23722;SDS011;12042;52.136;5.584;2022-12-07T14:40:35;4.15;;;2.65;;
23722;SDS011;12042;52.136;5.584;2022-12-07T14:43:01;3.22;;;2.92;;
23722;SDS011;12042;52.136;5.584;2022-12-07T14:45:30;7.63;;;3.30;;
23722;SDS011;12042;52.136;5.584;2022-12-07T14:47:55;4.30;;;2.90;;
23722;SDS011;12042;52.136;5.584;2022-12-07T14:50:21;4.82;;;3.45;;
23722;SDS011;12042;52.136;5.584;2022-12-07T14:52:50;9.35;;;6.43;;
23722;SDS011;12042;52.136;5.584;2022-12-07T14:57:55;6.15;;;4.38;;
23722;SDS011;12042;52.136;5.584;2022-12-07T15:00:22;9.30;;;3.75;;
23722;SDS011;12042;52.136;5.584;2022-12-07T15:02:50;7.15;;;3.72;;
23722;SDS011;12042;52.136;5.584;2022-12-07T15:05:16;6.63;;;4.20;;
23722;SDS011;12042;52.136;5.584;2022-12-07T15:07:42;8.73;;;4.18;;
23722;SDS011;12042;52.136;5.584;2022-12-07T15:10:13;4.93;;;3.00;;
23722;SDS011;12042;52.136;5.584;2022-12-07T15:12:46;3.92;;;2.47;;
23722;SDS011;12042;52.136;5.584;2022-12-07T15:15:12;4.80;;;2.80;;
23722;SDS011;12042;52.136;5.584;2022-12-07T15:17:39;7.50;;;4.10;;
23722;SDS011;12042;52.136;5.584;2022-12-07T15:20:05;5.53;;;4.40;;
23722;SDS011;12042;52.136;5.584;2022-12-07T15:22:32;6.10;;;4.93;;
23722;SDS011;12042;52.136;5.584;2022-12-07T15:24:58;8.05;;;5.38;;
23722;SDS011;12042;52.136;5.584;2022-12-07T15:27:23;11.48;;;6.90;;
23722;SDS011;12042;52.136;5.584;2022-12-07T15:29:49;24.65;;;16.10;;
23722;SDS011;12042;52.136;5.584;2022-12-07T15:32:15;12.55;;;8.45;;
23722;SDS011;12042;52.136;5.584;2022-12-07T15:34:40;8.55;;;5.35;;
23722;SDS011;12042;52.136;5.584;2022-12-07T15:37:06;5.57;;;3.90;;
23722;SDS011;12042;52.136;5.584;2022-12-07T15:39:32;6.95;;;3.58;;
23722;SDS011;12042;52.136;5.584;2022-12-07T15:41:58;5.70;;;3.13;;
23722;SDS011;12042;52.136;5.584;2022-12-07T15:44:23;5.65;;;3.30;;
23722;SDS011;12042;52.136;5.584;2022-12-07T15:47:07;7.00;;;3.30;;
23722;SDS011;12042;52.136;5.584;2022-12-07T15:49:33;7.80;;;3.72;;
23722;SDS011;12042;52.136;5.584;2022-12-07T15:51:59;9.48;;;4.93;;
23722;SDS011;12042;52.136;5.584;2022-12-07T15:54:28;6.85;;;4.43;;
23722;SDS011;12042;52.136;5.584;2022-12-07T15:56:54;10.55;;;4.68;;
23722;SDS011;12042;52.136;5.584;2022-12-07T15:59:21;6.20;;;4.45;;
23722;SDS011;12042;52.136;5.584;2022-12-07T16:01:47;8.75;;;3.95;;
23722;SDS011;12042;52.136;5.584;2022-12-07T16:04:13;5.78;;;3.75;;
23722;SDS011;12042;52.136;5.584;2022-12-07T16:06:38;3.83;;;3.40;;
23722;SDS011;12042;52.136;5.584;2022-12-07T16:09:04;6.47;;;3.60;;
23722;SDS011;12042;52.136;5.584;2022-12-07T16:11:30;4.35;;;3.70;;
23722;SDS011;12042;52.136;5.584;2022-12-07T16:13:56;5.63;;;3.53;;
23722;SDS011;12042;52.136;5.584;2022-12-07T16:16:22;5.80;;;3.70;;
23722;SDS011;12042;52.136;5.584;2022-12-07T16:18:48;4.22;;;3.30;;
23722;SDS011;12042;52.136;5.584;2022-12-07T16:21:15;5.28;;;3.38;;
23722;SDS011;12042;52.136;5.584;2022-12-07T16:23:42;6.15;;;3.78;;
23722;SDS011;12042;52.136;5.584;2022-12-07T16:26:15;7.90;;;5.28;;
23722;SDS011;12042;52.136;5.584;2022-12-07T16:28:42;7.07;;;5.25;;
23722;SDS011;12042;52.136;5.584;2022-12-07T16:31:13;8.70;;;5.18;;
23722;SDS011;12042;52.136;5.584;2022-12-07T16:33:40;5.38;;;4.82;;
23722;SDS011;12042;52.136;5.584;2022-12-07T16:36:08;4.80;;;4.40;;
23722;SDS011;12042;52.136;5.584;2022-12-07T16:38:35;5.72;;;5.20;;
23722;SDS011;12042;52.136;5.584;2022-12-07T16:41:01;6.90;;;6.00;;
23722;SDS011;12042;52.136;5.584;2022-12-07T16:43:27;6.43;;;5.55;;
23722;SDS011;12042;52.136;5.584;2022-12-07T16:45:52;7.55;;;5.32;;
23722;SDS011;12042;52.136;5.584;2022-12-07T16:48:18;8.15;;;5.40;;
23722;SDS011;12042;52.136;5.584;2022-12-07T16:50:44;7.57;;;6.45;;
23722;SDS011;12042;52.136;5.584;2022-12-07T16:53:11;10.73;;;7.13;;
23722;SDS011;12042;52.136;5.584;2022-12-07T16:55:38;13.90;;;9.90;;
23722;SDS011;12042;52.136;5.584;2022-12-07T16:58:06;12.20;;;8.82;;
23722;SDS011;12042;52.136;5.584;2022-12-07T17:00:32;12.18;;;8.50;;
23722;SDS011;12042;52.136;5.584;2022-12-07T17:02:58;11.10;;;9.00;;
23722;SDS011;12042;52.136;5.584;2022-12-07T17:05:24;17.15;;;12.63;;
23722;SDS011;12042;52.136;5.584;2022-12-07T17:07:50;17.98;;;11.63;;
23722;SDS011;12042;52.136;5.584;2022-12-07T17:10:15;11.25;;;8.57;;
23722;SDS011;12042;52.136;5.584;2022-12-07T17:12:41;10.95;;;7.47;;
23722;SDS011;12042;52.136;5.584;2022-12-07T17:15:07;11.75;;;7.10;;
23722;SDS011;12042;52.136;5.584;2022-12-07T17:17:44;8.85;;;6.65;;
23722;SDS011;12042;52.136;5.584;2022-12-07T17:20:10;12.60;;;7.45;;
23722;SDS011;12042;52.136;5.584;2022-12-07T17:22:37;9.63;;;6.35;;
23722;SDS011;12042;52.136;5.584;2022-12-07T17:25:03;5.38;;;4.85;;
23722;SDS011;12042;52.136;5.584;2022-12-07T17:27:30;7.18;;;5.05;;
23722;SDS011;12042;52.136;5.584;2022-12-07T17:29:55;9.65;;;5.55;;
23722;SDS011;12042;52.136;5.584;2022-12-07T17:32:21;8.15;;;5.43;;
23722;SDS011;12042;52.136;5.584;2022-12-07T17:34:47;12.63;;;6.60;;
23722;SDS011;12042;52.136;5.584;2022-12-07T17:37:13;10.85;;;6.80;;
23722;SDS011;12042;52.136;5.584;2022-12-07T17:39:38;9.00;;;6.43;;
23722;SDS011;12042;52.136;5.584;2022-12-07T17:42:04;10.50;;;6.50;;
23722;SDS011;12042;52.136;5.584;2022-12-07T17:44:48;12.70;;;7.15;;
23722;SDS011;12042;52.136;5.584;2022-12-07T17:47:13;11.35;;;7.30;;
23722;SDS011;12042;52.136;5.584;2022-12-07T17:49:41;9.50;;;6.68;;
23722;SDS011;12042;52.136;5.584;2022-12-07T17:52:10;8.70;;;6.30;;
23722;SDS011;12042;52.136;5.584;2022-12-07T17:54:55;9.77;;;5.35;;
23722;SDS011;12042;52.136;5.584;2022-12-07T17:57:20;9.52;;;4.72;;
23722;SDS011;12042;52.136;5.584;2022-12-07T17:59:46;10.70;;;5.45;;
23722;SDS011;12042;52.136;5.584;2022-12-07T18:02:11;10.38;;;6.22;;
23722;SDS011;12042;52.136;5.584;2022-12-07T18:04:37;12.40;;;5.65;;
23722;SDS011;12042;52.136;5.584;2022-12-07T18:07:06;9.52;;;5.20;;
23722;SDS011;12042;52.136;5.584;2022-12-07T18:09:32;7.85;;;4.35;;
23722;SDS011;12042;52.136;5.584;2022-12-07T18:11:57;6.45;;;3.60;;
23722;SDS011;12042;52.136;5.584;2022-12-07T18:14:23;5.18;;;3.28;;
23722;SDS011;12042;52.136;5.584;2022-12-07T18:16:49;7.32;;;3.30;;
23722;SDS011;12042;52.136;5.584;2022-12-07T18:19:14;5.95;;;3.25;;
23722;SDS011;12042;52.136;5.584;2022-12-07T18:21:41;6.28;;;3.40;;
23722;SDS011;12042;52.136;5.584;2022-12-07T18:24:08;5.40;;;3.70;;
23722;SDS011;12042;52.136;5.584;2022-12-07T18:26:35;5.93;;;3.10;;
23722;SDS011;12042;52.136;5.584;2022-12-07T18:29:01;5.95;;;3.75;;
23722;SDS011;12042;52.136;5.584;2022-12-07T18:31:28;8.32;;;4.15;;
23722;SDS011;12042;52.136;5.584;2022-12-07T18:33:54;4.68;;;4.00;;
23722;SDS011;12042;52.136;5.584;2022-12-07T18:36:21;5.63;;;3.20;;
23722;SDS011;12042;52.136;5.584;2022-12-07T18:38:46;5.63;;;2.92;;
23722;SDS011;12042;52.136;5.584;2022-12-07T18:41:12;5.65;;;4.47;;
23722;SDS011;12042;52.136;5.584;2022-12-07T18:43:40;5.20;;;2.60;;
23722;SDS011;12042;52.136;5.584;2022-12-07T18:46:13;5.25;;;2.80;;
23722;SDS011;12042;52.136;5.584;2022-12-07T18:48:40;4.38;;;2.85;;
23722;SDS011;12042;52.136;5.584;2022-12-07T18:51:06;6.53;;;3.13;;
23722;SDS011;12042;52.136;5.584;2022-12-07T18:53:34;6.70;;;3.08;;
23722;SDS011;12042;52.136;5.584;2022-12-07T18:56:00;2.58;;;2.38;;
23722;SDS011;12042;52.136;5.584;2022-12-07T18:58:27;8.73;;;3.25;;
23722;SDS011;12042;52.136;5.584;2022-12-07T19:00:54;3.35;;;3.05;;
23722;SDS011;12042;52.136;5.584;2022-12-07T19:03:20;7.15;;;3.75;;
23722;SDS011;12042;52.136;5.584;2022-12-07T19:05:45;5.18;;;4.20;;
23722;SDS011;12042;52.136;5.584;2022-12-07T19:08:11;9.27;;;5.78;;
23722;SDS011;12042;52.136;5.584;2022-12-07T19:10:36;9.23;;;5.97;;
23722;SDS011;12042;52.136;5.584;2022-12-07T19:13:03;9.60;;;5.20;;
23722;SDS011;12042;52.136;5.584;2022-12-07T19:15:29;9.50;;;6.10;;
23722;SDS011;12042;52.136;5.584;2022-12-07T19:17:55;7.65;;;5.30;;
23722;SDS011;12042;52.136;5.584;2022-12-07T19:20:21;6.55;;;5.47;;
23722;SDS011;12042;52.136;5.584;2022-12-07T19:22:47;7.43;;;4.88;;
23722;SDS011;12042;52.136;5.584;2022-12-07T19:25:12;8.95;;;5.00;;
23722;SDS011;12042;52.136;5.584;2022-12-07T19:27:38;11.30;;;5.80;;
23722;SDS011;12042;52.136;5.584;2022-12-07T19:30:05;8.43;;;5.55;;
23722;SDS011;12042;52.136;5.584;2022-12-07T19:32:34;13.73;;;6.82;;
23722;SDS011;12042;52.136;5.584;2022-12-07T19:35:01;8.43;;;5.88;;
23722;SDS011;12042;52.136;5.584;2022-12-07T19:37:28;11.93;;;6.68;;
23722;SDS011;12042;52.136;5.584;2022-12-07T19:39:53;11.90;;;6.90;;
23722;SDS011;12042;52.136;5.584;2022-12-07T19:42:19;8.75;;;7.10;;
23722;SDS011;12042;52.136;5.584;2022-12-07T19:44:45;11.05;;;7.28;;
23722;SDS011;12042;52.136;5.584;2022-12-07T19:47:10;11.45;;;7.78;;
23722;SDS011;12042;52.136;5.584;2022-12-07T19:49:39;8.48;;;7.18;;
23722;SDS011;12042;52.136;5.584;2022-12-07T19:52:05;8.82;;;7.10;;
23722;SDS011;12042;52.136;5.584;2022-12-07T19:54:32;8.00;;;6.70;;
23722;SDS011;12042;52.136;5.584;2022-12-07T19:56:58;7.43;;;5.93;;
23722;SDS011;12042;52.136;5.584;2022-12-07T19:59:25;8.45;;;5.93;;
23722;SDS011;12042;52.136;5.584;2022-12-07T20:01:52;7.57;;;6.35;;
23722;SDS011;12042;52.136;5.584;2022-12-07T20:04:19;8.45;;;6.28;;
23722;SDS011;12042;52.136;5.584;2022-12-07T20:06:47;9.20;;;5.95;;
23722;SDS011;12042;52.136;5.584;2022-12-07T20:09:13;9.07;;;7.10;;
23722;SDS011;12042;52.136;5.584;2022-12-07T20:11:39;14.02;;;9.30;;
23722;SDS011;12042;52.136;5.584;2022-12-07T20:14:23;12.82;;;8.77;;
23722;SDS011;12042;52.136;5.584;2022-12-07T20:16:49;11.95;;;7.72;;
23722;SDS011;12042;52.136;5.584;2022-12-07T20:19:15;13.60;;;6.88;;
23722;SDS011;12042;52.136;5.584;2022-12-07T20:21:42;9.40;;;7.30;;
23722;SDS011;12042;52.136;5.584;2022-12-07T20:24:12;13.10;;;7.03;;
23722;SDS011;12042;52.136;5.584;2022-12-07T20:26:41;12.57;;;7.20;;
23722;SDS011;12042;52.136;5.584;2022-12-07T20:29:07;8.18;;;7.38;;
23722;SDS011;12042;52.136;5.584;2022-12-07T20:31:34;8.07;;;6.50;;
23722;SDS011;12042;52.136;5.584;2022-12-07T20:34:00;11.80;;;7.05;;
23722;SDS011;12042;52.136;5.584;2022-12-07T20:36:27;14.02;;;6.57;;
23722;SDS011;12042;52.136;5.584;2022-12-07T20:38:53;10.05;;;7.30;;
23722;SDS011;12042;52.136;5.584;2022-12-07T20:41:18;13.05;;;9.07;;
23722;SDS011;12042;52.136;5.584;2022-12-07T20:44:03;17.38;;;11.27;;
23722;SDS011;12042;52.136;5.584;2022-12-07T20:46:29;18.52;;;12.88;;
23722;SDS011;12042;52.136;5.584;2022-12-07T20:48:58;11.57;;;8.20;;
23722;SDS011;12042;52.136;5.584;2022-12-07T20:51:28;12.07;;;7.25;;
23722;SDS011;12042;52.136;5.584;2022-12-07T20:53:54;8.50;;;5.97;;
23722;SDS011;12042;52.136;5.584;2022-12-07T20:56:21;7.45;;;6.20;;
23722;SDS011;12042;52.136;5.584;2022-12-07T20:58:49;7.10;;;6.38;;
23722;SDS011;12042;52.136;5.584;2022-12-07T21:01:15;10.40;;;6.25;;
23722;SDS011;12042;52.136;5.584;2022-12-07T21:03:41;10.10;;;6.55;;
23722;SDS011;12042;52.136;5.584;2022-12-07T21:06:08;7.80;;;6.15;;
23722;SDS011;12042;52.136;5.584;2022-12-07T21:08:42;7.43;;;6.38;;
23722;SDS011;12042;52.136;5.584;2022-12-07T21:11:11;8.27;;;6.35;;
23722;SDS011;12042;52.136;5.584;2022-12-07T21:13:37;9.25;;;6.85;;
23722;SDS011;12042;52.136;5.584;2022-12-07T21:16:09;11.05;;;7.47;;
23722;SDS011;12042;52.136;5.584;2022-12-07T21:18:37;12.10;;;7.88;;
23722;SDS011;12042;52.136;5.584;2022-12-07T21:21:04;12.05;;;7.13;;
23722;SDS011;12042;52.136;5.584;2022-12-07T21:23:34;9.27;;;7.05;;
23722;SDS011;12042;52.136;5.584;2022-12-07T21:26:00;10.68;;;6.55;;
23722;SDS011;12042;52.136;5.584;2022-12-07T21:28:33;9.25;;;7.07;;
23722;SDS011;12042;52.136;5.584;2022-12-07T21:30:58;6.95;;;5.97;;
23722;SDS011;12042;52.136;5.584;2022-12-07T21:33:24;9.50;;;6.75;;
23722;SDS011;12042;52.136;5.584;2022-12-07T21:35:50;8.52;;;5.75;;
23722;SDS011;12042;52.136;5.584;2022-12-07T21:38:15;8.35;;;5.38;;
23722;SDS011;12042;52.136;5.584;2022-12-07T21:40:41;8.75;;;5.20;;
23722;SDS011;12042;52.136;5.584;2022-12-07T21:43:07;8.68;;;5.40;;
23722;SDS011;12042;52.136;5.584;2022-12-07T21:45:35;8.48;;;5.68;;
23722;SDS011;12042;52.136;5.584;2022-12-07T21:48:00;10.20;;;6.25;;
23722;SDS011;12042;52.136;5.584;2022-12-07T21:50:26;6.75;;;5.57;;
23722;SDS011;12042;52.136;5.584;2022-12-07T21:52:53;8.90;;;5.60;;
23722;SDS011;12042;52.136;5.584;2022-12-07T21:55:19;9.57;;;5.63;;
23722;SDS011;12042;52.136;5.584;2022-12-07T21:57:45;8.27;;;5.63;;
23722;SDS011;12042;52.136;5.584;2022-12-07T22:00:10;9.85;;;5.90;;
23722;SDS011;12042;52.136;5.584;2022-12-07T22:02:36;6.38;;;5.80;;
23722;SDS011;12042;52.136;5.584;2022-12-07T22:05:02;10.02;;;6.80;;
23722;SDS011;12042;52.136;5.584;2022-12-07T22:07:28;6.68;;;5.30;;
23722;SDS011;12042;52.136;5.584;2022-12-07T22:09:54;10.68;;;5.00;;
23722;SDS011;12042;52.136;5.584;2022-12-07T22:12:19;4.97;;;4.47;;
23722;SDS011;12042;52.136;5.584;2022-12-07T22:14:45;8.55;;;5.32;;
23722;SDS011;12042;52.136;5.584;2022-12-07T22:17:29;9.75;;;5.93;;
23722;SDS011;12042;52.136;5.584;2022-12-07T22:19:55;7.32;;;4.88;;
23722;SDS011;12042;52.136;5.584;2022-12-07T22:22:21;6.88;;;4.15;;
23722;SDS011;12042;52.136;5.584;2022-12-07T22:24:46;8.30;;;4.15;;
23722;SDS011;12042;52.136;5.584;2022-12-07T22:27:12;9.00;;;4.65;;
23722;SDS011;12042;52.136;5.584;2022-12-07T22:29:38;4.30;;;3.90;;
23722;SDS011;12042;52.136;5.584;2022-12-07T22:32:04;6.38;;;3.40;;
23722;SDS011;12042;52.136;5.584;2022-12-07T22:34:30;5.88;;;3.35;;
23722;SDS011;12042;52.136;5.584;2022-12-07T22:36:55;7.15;;;3.55;;
23722;SDS011;12042;52.136;5.584;2022-12-07T22:39:21;6.82;;;3.25;;
